»·PEaware :: N6338D KSNA-KPOC

N6338D :: KSNA-KPOC

FLIGHT INFORMATION

Flight Status: Arrived
Operator: Privately registered:
United States
More flights under this callsign
Pilot: Vince Laub (14672)
Aircraft: CESSNA 172 SKYHAWK
(C172)
More flights by this aircraft type
Origin: KSNA John Wayne-Orange Co
United States
Destination: KPOC Brackett
United States
More flights between these airports :: More routes between these airports
Route: SLI V8 POXKU V363 POM
File this flight plan on PilotEdge
Remarks:
Altitude:
(Current/Filed)
5,000ft
Speed:
(Current/Filed)
105kts
Departed: 09-Aug-17 03:54 PM
Arrived: 09-Aug-17 04:35 PM
Distance/Time
Traveled:
0nm/0:41
Distance/Time
To Go:
Arrived

Flight Plot

Page will automatically refresh every two minutes.


Map Options




Map Legend


Flown Route
Filed Route
Departure Airport
Arrival Airport
Navaid (VOR, NDB)
Fix

Horizontal Profiles

Position Reports

Time Latitude Longitude Heading Altitude Ground
Speed
09-Aug-17 15:23 33.670688 -117.868613 255 60ft 0kts
09-Aug-17 15:24 33.670512 -117.868609 167 60ft 1kts
09-Aug-17 15:25 33.670636 -117.868499 41 60ft 0kts
09-Aug-17 15:26 33.670636 -117.868499 41 60ft 0kts
09-Aug-17 15:27 33.670636 -117.868499 41 60ft 0kts
09-Aug-17 15:28 33.670636 -117.868499 41 60ft 0kts
09-Aug-17 15:29 33.670636 -117.868499 41 60ft 0kts
09-Aug-17 15:30 33.670636 -117.868499 41 60ft 0kts
09-Aug-17 15:31 33.670636 -117.868499 41 60ft 0kts
09-Aug-17 15:32 33.670636 -117.868499 41 60ft 0kts
09-Aug-17 15:33 33.670636 -117.868499 41 60ft 0kts
09-Aug-17 15:34 33.670636 -117.868499 41 60ft 0kts
09-Aug-17 15:35 33.670636 -117.868499 41 60ft 0kts
09-Aug-17 15:36 33.670636 -117.868499 41 60ft 0kts
09-Aug-17 15:37 33.670636 -117.868499 41 60ft 0kts
09-Aug-17 15:38 33.670636 -117.868499 41 60ft 0kts
09-Aug-17 15:39 33.670636 -117.868499 41 60ft 0kts
09-Aug-17 15:40 33.670636 -117.868499 41 60ft 0kts
09-Aug-17 15:41 33.670636 -117.868499 41 60ft 0kts
09-Aug-17 15:42 33.670636 -117.868499 41 60ft 0kts
09-Aug-17 15:43 33.670636 -117.868499 41 60ft 0kts
09-Aug-17 15:44 33.670636 -117.868499 41 60ft 0kts
09-Aug-17 15:45 33.670636 -117.868499 41 60ft 0kts
09-Aug-17 15:46 33.670636 -117.868499 41 60ft 0kts
09-Aug-17 15:47 33.670636 -117.868499 41 60ft 0kts
09-Aug-17 15:48 33.670636 -117.868499 41 60ft 0kts
09-Aug-17 15:49 33.670636 -117.868499 41 60ft 0kts
09-Aug-17 15:50 33.670636 -117.868499 41 60ft 0kts
09-Aug-17 15:51 33.670794 -117.868506 324 60ft 7kts
09-Aug-17 15:52 33.673958 -117.867147 21 60ft 13kts
09-Aug-17 15:53 33.676208 -117.865761 26 60ft 10kts
09-Aug-17 15:54 33.678956 -117.864023 29 60ft 15kts
09-Aug-17 15:55 33.679957 -117.863678 310 60ft 0kts
09-Aug-17 15:56 33.680088 -117.864140 228 60ft 11kts
09-Aug-17 15:57 33.668033 -117.877194 230 590ft 73kts
09-Aug-17 15:58 33.655709 -117.897076 233 1396ft 75kts
09-Aug-17 15:59 33.643996 -117.917842 228 2165ft 76kts
09-Aug-17 16:00 33.630528 -117.937196 235 2884ft 78kts
09-Aug-17 16:01 33.620982 -117.958954 291 3570ft 82kts
09-Aug-17 16:02 33.642891 -117.958091 3 4236ft 85kts
09-Aug-17 16:03 33.665949 -117.955044 5 4873ft 83kts
09-Aug-17 16:04 33.693549 -117.953478 2 5125ft 113kts
09-Aug-17 16:05 33.727459 -117.951026 1 4952ft 121kts
09-Aug-17 16:06 33.759821 -117.950000 359 5002ft 115kts
09-Aug-17 16:07 33.792206 -117.947110 8 5082ft 116kts
09-Aug-17 16:08 33.815948 -117.920373 54 5071ft 121kts
09-Aug-17 16:09 33.831256 -117.884415 80 5018ft 123kts
09-Aug-17 16:10 33.839762 -117.844823 74 4999ft 122kts
09-Aug-17 16:11 33.848069 -117.805446 74 4971ft 122kts
09-Aug-17 16:12 33.869192 -117.783614 353 5066ft 114kts
09-Aug-17 16:13 33.901712 -117.782530 3 5097ft 120kts
09-Aug-17 16:14 33.935445 -117.780039 357 5050ft 123kts
09-Aug-17 16:15 33.969884 -117.780046 359 4992ft 123kts
09-Aug-17 16:16 34.004143 -117.779789 344 4930ft 122kts
09-Aug-17 16:17 34.037379 -117.781615 0 5016ft 117kts
09-Aug-17 16:18 34.070114 -117.784704 351 5063ft 118kts
09-Aug-17 16:19 34.083015 -117.761814 112 5432ft 96kts
09-Aug-17 16:20 34.079116 -117.731398 90 5996ft 100kts
09-Aug-17 16:21 34.080666 -117.693188 91 6046ft 126kts
09-Aug-17 16:22 34.078464 -117.650027 95 5997ft 130kts
09-Aug-17 16:23 34.080977 -117.606853 91 6001ft 130kts
09-Aug-17 16:24 34.079457 -117.563881 93 6018ft 128kts
09-Aug-17 16:25 34.076545 -117.520951 98 6011ft 128kts
09-Aug-17 16:26 34.081242 -117.482810 62 5876ft 108kts
09-Aug-17 16:27 34.077729 -117.458354 191 5212ft 94kts
09-Aug-17 16:28 34.081837 -117.484247 301 4369ft 106kts
09-Aug-17 16:29 34.088468 -117.516510 268 3827ft 96kts
09-Aug-17 16:30 34.088071 -117.550216 267 3384ft 104kts
09-Aug-17 16:31 34.088299 -117.583540 267 3168ft 93kts
09-Aug-17 16:32 34.088878 -117.613959 273 3223ft 95kts
09-Aug-17 16:33 34.089859 -117.645469 269 3165ft 94kts
09-Aug-17 16:34 34.090435 -117.676095 269 3152ft 92kts
09-Aug-17 16:35 34.087879 -117.708359 257 2434ft 108kts
09-Aug-17 16:36 34.089571 -117.741513 269 1766ft 97kts
09-Aug-17 16:37 34.090990 -117.774155 265 1059ft 96kts
09-Aug-17 16:38 34.091079 -117.786827 181 1015ft 0kts
09-Aug-17 16:39 34.090759 -117.784871 93 1015ft 18kts
09-Aug-17 16:40 34.089141 -117.782960 276 1015ft 0kts
09-Aug-17 16:45 33.670676 -117.868604 256 59ft 0kts
09-Aug-17 16:46 33.670676 -117.868604 256 59ft 0kts
09-Aug-17 16:47 33.670676 -117.868604 256 59ft 0kts
09-Aug-17 16:48 33.670676 -117.868604 256 59ft 0kts
09-Aug-17 16:49 33.670685 -117.868600 256 60ft 0kts

Navigation Log

Ident Type
1. KSNA Airport
2. SLI Navaid
3. AHEIM Fix
4. OLLIE Fix
5. POXKU Fix
6. PRADO Fix
7. BAYJY Fix
8. POM Navaid
9. KPOC Airport